createdAt,value
2019-04-29T00:02:25.242Z,10.55
2019-04-29T00:04:55.167Z,10.54
2019-04-29T00:07:25.159Z,10.53
2019-04-29T00:09:55.299Z,10.52
2019-04-29T00:12:25.797Z,10.51
2019-04-29T00:15:05.344Z,10.50
2019-04-29T00:20:20.366Z,10.47
2019-04-29T00:22:50.475Z,10.46
2019-04-29T00:25:20.936Z,10.45
2019-04-29T00:27:50.802Z,10.44
2019-04-29T00:30:22.391Z,10.43
2019-04-29T00:32:52.390Z,10.40
2019-04-29T00:35:22.344Z,10.39
2019-04-29T00:38:18.076Z,10.39
2019-04-29T00:41:12.850Z,10.36
2019-04-29T00:43:47.568Z,10.31
2019-04-29T00:46:18.828Z,10.28
2019-04-29T00:48:48.801Z,10.25
2019-04-29T00:51:18.805Z,10.23
2019-04-29T00:53:50.691Z,10.20
2019-04-29T00:56:20.619Z,10.16
2019-04-29T00:58:50.542Z,10.12
2019-04-29T01:01:24.233Z,10.09
2019-04-29T01:03:54.182Z,10.06
2019-04-29T01:06:24.120Z,10.01
2019-04-29T01:08:55.047Z,9.98
2019-04-29T01:11:24.977Z,9.97
2019-04-29T01:13:54.932Z,9.97
2019-04-29T01:16:24.771Z,9.97
2019-04-29T01:18:54.701Z,9.95
2019-04-29T01:21:24.718Z,9.94
2019-04-29T01:23:54.646Z,9.93
2019-04-29T01:26:46.378Z,9.91
2019-04-29T01:29:17.180Z,9.88
2019-04-29T01:31:47.087Z,9.82
2019-04-29T01:34:22.147Z,9.81
2019-04-29T01:36:51.937Z,9.82
2019-04-29T01:39:23.443Z,9.79
2019-04-29T01:42:05.111Z,9.76
2019-04-29T01:44:36.656Z,9.76
2019-04-29T01:47:06.587Z,9.75
2019-04-29T01:49:37.165Z,9.74
2019-04-29T01:52:07.084Z,9.73
2019-04-29T01:54:37.025Z,9.74
2019-04-29T01:57:06.956Z,9.74
2019-04-29T01:59:36.817Z,9.74
2019-04-29T02:02:06.747Z,9.71
2019-04-29T02:04:36.708Z,9.72
2019-04-29T02:07:06.642Z,9.73
2019-04-29T02:09:41.782Z,9.73
2019-04-29T02:12:12.002Z,9.72
2019-04-29T02:14:41.942Z,9.70
2019-04-29T02:17:11.775Z,9.69
2019-04-29T02:19:41.713Z,9.71
2019-04-29T02:22:19.716Z,9.69
2019-04-29T02:24:56.528Z,9.69
2019-04-29T02:27:26.375Z,9.66
2019-04-29T02:29:56.307Z,9.63
2019-04-29T02:32:26.105Z,9.60
2019-04-29T02:34:55.882Z,9.58
2019-04-29T02:37:30.978Z,9.56
2019-04-29T02:40:17.070Z,9.53
2019-04-29T02:42:56.142Z,9.51
2019-04-29T02:45:30.064Z,9.51
2019-04-29T02:47:59.839Z,9.50
2019-04-29T02:50:29.693Z,9.49
2019-04-29T02:52:59.609Z,9.47
2019-04-29T02:55:37.246Z,9.48
2019-04-29T02:58:22.098Z,9.49
2019-04-29T03:01:09.264Z,9.49
2019-04-29T03:04:04.371Z,9.49
2019-04-29T03:06:34.414Z,9.50
2019-04-29T03:09:05.862Z,9.48
2019-04-29T03:11:36.557Z,9.47
2019-04-29T03:14:06.466Z,9.44
2019-04-29T03:16:36.406Z,9.44
2019-04-29T03:19:11.083Z,9.40
2019-04-29T03:21:46.290Z,9.38
2019-04-29T03:24:16.204Z,9.33
2019-04-29T03:26:46.134Z,9.31
2019-04-29T03:29:22.169Z,9.31
2019-04-29T03:31:53.911Z,9.30
2019-04-29T03:34:24.153Z,9.31
2019-04-29T03:36:54.201Z,9.30
2019-04-29T03:39:24.186Z,9.28
2019-04-29T03:41:54.130Z,9.29
2019-04-29T03:44:24.050Z,9.28
2019-04-29T03:46:53.912Z,9.25
2019-04-29T03:49:23.846Z,9.22
2019-04-29T03:51:53.715Z,9.21
2019-04-29T03:54:23.744Z,9.18
2019-04-29T03:56:53.678Z,9.17
2019-04-29T03:59:23.440Z,9.15
2019-04-29T04:02:12.300Z,9.14
2019-04-29T04:05:07.817Z,9.11
2019-04-29T04:07:56.587Z,9.12
2019-04-29T04:10:26.524Z,9.10
2019-04-29T04:12:56.372Z,9.10
2019-04-29T04:15:26.604Z,9.13
2019-04-29T04:18:07.929Z,9.13
2019-04-29T04:20:38.098Z,9.13
2019-04-29T04:23:07.960Z,9.12
2019-04-29T04:25:38.385Z,9.14
2019-04-29T04:28:08.616Z,9.16
2019-04-29T04:30:38.545Z,9.15
2019-04-29T04:33:08.834Z,9.15
2019-04-29T04:35:38.789Z,9.13
2019-04-29T04:38:08.872Z,9.15
2019-04-29T04:40:43.530Z,9.14
2019-04-29T04:43:13.695Z,9.14
2019-04-29T04:45:43.544Z,9.19
2019-04-29T04:48:13.760Z,9.22
2019-04-29T04:50:43.677Z,9.26
2019-04-29T04:53:13.621Z,9.28
2019-04-29T04:55:44.929Z,9.30
2019-04-29T04:58:15.010Z,9.31
2019-04-29T05:00:44.979Z,9.31
2019-04-29T05:03:15.459Z,9.34
2019-04-29T05:05:45.385Z,9.37
2019-04-29T05:08:15.270Z,9.40
2019-04-29T05:10:45.145Z,9.43
2019-04-29T05:13:27.319Z,9.44
2019-04-29T05:15:47.274Z,9.43
2019-04-29T05:18:17.198Z,9.43
2019-04-29T05:20:47.042Z,9.45
2019-04-29T05:23:17.122Z,9.44
2019-04-29T05:25:47.262Z,9.44
2019-04-29T05:28:17.026Z,9.45
2019-04-29T05:30:46.889Z,9.46
2019-04-29T05:33:16.804Z,9.48
2019-04-29T05:35:56.708Z,9.46
2019-04-29T05:38:44.266Z,9.46
2019-04-29T05:41:14.483Z,9.48
2019-04-29T05:44:00.606Z,9.52
2019-04-29T05:46:49.475Z,9.54
2019-04-29T05:49:24.415Z,9.57
2019-04-29T05:52:01.956Z,9.59
2019-04-29T05:54:33.523Z,9.57
2019-04-29T05:57:04.612Z,9.54
2019-04-29T05:59:34.513Z,9.59
2019-04-29T06:02:04.445Z,9.62
2019-04-29T06:04:34.300Z,9.65
2019-04-29T06:07:04.232Z,9.67
2019-04-29T06:09:34.715Z,9.70
2019-04-29T06:12:04.641Z,9.74
2019-04-29T06:14:34.858Z,9.78
2019-04-29T06:17:07.743Z,9.82
2019-04-29T06:19:39.210Z,9.85
2019-04-29T06:22:09.215Z,9.86
2019-04-29T06:24:41.043Z,9.87
2019-04-29T06:27:10.542Z,9.86
2019-04-29T06:29:40.532Z,9.87
2019-04-29T06:32:10.318Z,9.91
2019-04-29T06:34:41.769Z,9.91
2019-04-29T06:37:11.896Z,9.91
2019-04-29T06:39:41.781Z,9.93
2019-04-29T06:42:15.565Z,9.91
2019-04-29T06:44:44.403Z,9.94
2019-04-29T06:47:17.013Z,10.00
2019-04-29T06:49:46.963Z,10.06
2019-04-29T06:52:17.169Z,10.11
2019-04-29T06:54:48.167Z,10.16
2019-04-29T06:57:18.168Z,10.14
2019-04-29T06:59:48.718Z,10.16
2019-04-29T07:02:18.742Z,10.15
2019-04-29T07:04:48.877Z,9.89
2019-04-29T07:07:18.821Z,9.83
2019-04-29T07:09:48.651Z,9.87
2019-04-29T07:12:18.597Z,9.95
2019-04-29T07:14:49.934Z,10.06
2019-04-29T07:17:19.904Z,10.16
2019-04-29T07:19:50.951Z,10.20
2019-04-29T07:22:25.577Z,10.09
2019-04-29T07:24:52.481Z,10.07
2019-04-29T07:27:22.413Z,10.05
2019-04-29T07:29:52.811Z,10.14
2019-04-29T07:32:22.759Z,10.26
2019-04-29T07:34:52.687Z,10.35
2019-04-29T07:37:22.956Z,10.41
2019-04-29T07:39:53.110Z,10.47
2019-04-29T07:42:25.026Z,10.45
2019-04-29T07:45:12.615Z,10.40
2019-04-29T07:47:55.881Z,10.47
2019-04-29T07:50:15.631Z,10.57
2019-04-29T07:52:50.026Z,10.57
2019-04-29T07:55:18.487Z,10.64
2019-04-29T07:57:52.177Z,10.64
2019-04-29T08:00:27.171Z,10.73
2019-04-29T08:02:57.478Z,10.79
2019-04-29T08:05:28.708Z,10.85
2019-04-29T08:08:00.111Z,10.91
2019-04-29T08:10:29.985Z,10.95
2019-04-29T08:13:00.931Z,10.98
2019-04-29T08:15:32.046Z,11.00
2019-04-29T08:18:06.775Z,11.08
2019-04-29T08:20:35.401Z,11.12
2019-04-29T08:23:05.223Z,11.19
2019-04-29T08:25:36.308Z,11.23
2019-04-29T08:28:06.267Z,11.23
2019-04-29T08:30:36.132Z,11.28
2019-04-29T08:33:07.557Z,11.32
2019-04-29T08:35:38.244Z,11.33
2019-04-29T08:38:08.405Z,11.31
2019-04-29T08:40:38.361Z,11.38
2019-04-29T08:43:22.381Z,11.45
2019-04-29T08:45:59.861Z,11.50
2019-04-29T08:48:29.818Z,11.59
2019-04-29T08:51:00.686Z,11.70
2019-04-29T08:53:30.633Z,11.75
2019-04-29T08:56:00.570Z,11.82
2019-04-29T08:58:31.594Z,11.86
2019-04-29T09:01:01.556Z,11.92
2019-04-29T09:03:40.191Z,11.94
2019-04-29T09:06:06.078Z,12.01
2019-04-29T09:08:35.644Z,12.03
2019-04-29T09:11:08.165Z,12.10
2019-04-29T09:13:38.368Z,12.16
2019-04-29T09:16:08.330Z,12.21
2019-04-29T09:18:38.281Z,12.27
2019-04-29T09:21:08.231Z,12.33
2019-04-29T09:23:38.208Z,12.39
2019-04-29T09:26:27.142Z,12.43
2019-04-29T09:28:59.800Z,12.47
2019-04-29T09:31:29.284Z,12.52
2019-04-29T09:34:06.532Z,12.56
2019-04-29T09:36:30.735Z,12.63
2019-04-29T09:39:00.700Z,12.72
2019-04-29T09:41:51.289Z,12.78
2019-04-29T09:44:44.966Z,12.82
2019-04-29T09:47:14.752Z,12.86
2019-04-29T09:49:44.766Z,12.89
2019-04-29T09:52:14.698Z,12.96
2019-04-29T09:54:44.635Z,13.03
2019-04-29T09:57:15.130Z,13.08
2019-04-29T09:59:49.831Z,13.14
2019-04-29T10:02:34.828Z,13.16
2019-04-29T10:05:13.914Z,13.16
2019-04-29T10:07:43.970Z,13.25
2019-04-29T10:10:14.154Z,13.34
2019-04-29T10:12:44.153Z,13.46
2019-04-29T10:15:16.036Z,13.58
2019-04-29T10:17:55.689Z,13.66
2019-04-29T10:20:38.649Z,13.70
2019-04-29T10:23:08.604Z,13.82
2019-04-29T10:25:38.651Z,13.89
2019-04-29T10:28:08.904Z,13.97
2019-04-29T10:30:38.846Z,14.08
2019-04-29T10:33:12.807Z,14.19
2019-04-29T10:35:40.754Z,14.21
2019-04-29T10:38:12.021Z,14.17
2019-04-29T10:41:02.797Z,14.13
2019-04-29T10:44:01.233Z,14.20
2019-04-29T10:47:02.484Z,14.31
2019-04-29T10:49:41.001Z,14.37
2019-04-29T10:52:11.061Z,14.38
2019-04-29T10:54:40.990Z,14.43
2019-04-29T10:57:14.816Z,14.57
2019-04-29T10:59:46.210Z,14.80
2019-04-29T11:02:49.378Z,14.93
2019-04-29T11:06:00.808Z,15.01
2019-04-29T11:08:49.832Z,15.08
2019-04-29T11:11:23.253Z,15.10
2019-04-29T11:13:51.510Z,15.07
2019-04-29T11:16:23.002Z,15.06
2019-04-29T11:18:55.113Z,14.99
2019-04-29T11:21:29.486Z,14.98
2019-04-29T11:24:05.342Z,15.10
2019-04-29T11:26:44.548Z,15.30
2019-04-29T11:29:13.239Z,15.54
2019-04-29T11:31:48.727Z,15.68
2019-04-29T11:34:35.841Z,15.67
2019-04-29T11:37:08.225Z,15.62
2019-04-29T11:39:38.099Z,15.51
2019-04-29T11:42:10.046Z,15.51
2019-04-29T11:44:40.000Z,15.65
2019-04-29T11:47:09.928Z,15.87
2019-04-29T11:49:47.869Z,16.11
2019-04-29T11:52:18.009Z,16.41
2019-04-29T11:54:47.958Z,16.52
2019-04-29T11:57:40.340Z,16.53
2019-04-29T12:00:18.418Z,16.51
2019-04-29T12:02:52.652Z,16.46
2019-04-29T12:05:44.913Z,16.52
2019-04-29T12:08:17.143Z,16.70
2019-04-29T12:10:52.048Z,16.95
2019-04-29T12:13:28.324Z,17.17
2019-04-29T12:16:11.278Z,17.31
2019-04-29T12:18:50.586Z,17.36
2019-04-29T12:21:40.772Z,17.54
2019-04-29T12:24:10.910Z,17.73
2019-04-29T12:26:44.224Z,17.85
2019-04-29T12:29:13.643Z,17.72
2019-04-29T12:31:57.688Z,17.68
2019-04-29T12:34:45.741Z,17.59
2019-04-29T12:37:29.789Z,17.47
2019-04-29T12:40:16.259Z,17.41
2019-04-29T12:43:04.252Z,17.47
2019-04-29T12:45:41.685Z,17.60
2019-04-29T12:48:23.984Z,17.73
2019-04-29T12:50:43.256Z,17.82
2019-04-29T12:53:13.117Z,17.86
2019-04-29T12:55:51.389Z,17.93
2019-04-29T12:58:19.381Z,18.03
2019-04-29T13:00:56.400Z,18.07
2019-04-29T13:03:39.726Z,17.99
2019-04-29T13:06:10.349Z,18.03
2019-04-29T13:08:49.438Z,18.21
2019-04-29T13:11:20.948Z,18.32
2019-04-29T13:13:56.081Z,18.41
2019-04-29T13:16:42.359Z,18.41
2019-04-29T13:19:20.183Z,18.38
2019-04-29T13:21:47.464Z,18.21
2019-04-29T13:24:23.772Z,18.13
2019-04-29T13:26:49.641Z,18.07
2019-04-29T13:29:27.179Z,18.00
2019-04-29T13:31:51.581Z,17.98
2019-04-29T13:34:31.069Z,17.93
2019-04-29T13:37:07.118Z,17.93
2019-04-29T13:39:40.499Z,17.93
2019-04-29T13:42:09.037Z,17.94
2019-04-29T13:44:41.542Z,17.88
2019-04-29T13:47:30.979Z,17.84
2019-04-29T13:50:26.718Z,17.76
2019-04-29T13:52:47.928Z,17.68
2019-04-29T13:55:45.445Z,17.71
2019-04-29T13:57:50.812Z,17.71
2019-04-29T14:00:36.282Z,17.74
2019-04-29T14:03:14.345Z,17.78
2019-04-29T14:05:44.608Z,17.82
2019-04-29T14:08:14.536Z,17.85
2019-04-29T14:10:46.877Z,17.84
2019-04-29T14:13:20.466Z,17.83
2019-04-29T14:15:47.824Z,17.86
2019-04-29T14:18:17.691Z,17.86
2019-04-29T14:20:51.788Z,17.86
2019-04-29T14:23:19.268Z,17.85
2019-04-29T14:25:49.144Z,17.82
2019-04-29T14:28:19.369Z,17.81
2019-04-29T14:30:49.364Z,17.77
2019-04-29T14:33:24.201Z,17.77
2019-04-29T14:36:01.750Z,17.77
2019-04-29T14:38:36.100Z,17.71
2019-04-29T14:41:06.681Z,17.64
2019-04-29T14:43:56.801Z,17.66
2019-04-29T14:46:50.966Z,17.63
2019-04-29T14:49:26.607Z,17.60
2019-04-29T14:51:56.643Z,17.54
2019-04-29T14:54:26.549Z,17.51
2019-04-29T14:56:56.828Z,17.50
2019-04-29T14:59:27.388Z,17.50
2019-04-29T15:02:07.453Z,17.49
2019-04-29T15:04:39.577Z,17.48
2019-04-29T15:07:09.898Z,17.51
2019-04-29T15:09:55.977Z,17.54
2019-04-29T15:13:06.658Z,17.56
2019-04-29T15:15:45.285Z,17.55
2019-04-29T15:18:47.338Z,17.58
2019-04-29T15:21:31.190Z,17.60
2019-04-29T15:23:50.681Z,17.58
2019-04-29T15:26:20.615Z,17.57
2019-04-29T15:28:53.474Z,17.58
2019-04-29T15:31:24.025Z,17.58
2019-04-29T15:33:54.040Z,17.58
2019-04-29T15:36:24.379Z,17.57
2019-04-29T15:39:09.562Z,17.57
2019-04-29T15:41:30.909Z,17.56
2019-04-29T15:44:07.249Z,17.55
2019-04-29T15:46:45.583Z,17.59
2019-04-29T15:49:03.163Z,17.53
2019-04-29T15:51:33.084Z,17.53
2019-04-29T15:54:04.224Z,17.47
2019-04-29T15:56:38.639Z,17.44
2019-04-29T15:59:08.690Z,17.38
2019-04-29T16:01:41.215Z,17.34
2019-04-29T16:04:14.696Z,17.32
2019-04-29T16:07:17.102Z,17.34
2019-04-29T16:10:20.536Z,17.29
2019-04-29T16:12:53.493Z,17.25
2019-04-29T16:15:23.468Z,17.17
2019-04-29T16:17:53.390Z,17.16
2019-04-29T16:20:23.637Z,17.14
2019-04-29T16:22:54.121Z,17.12
2019-04-29T16:25:25.464Z,17.08
2019-04-29T16:27:55.255Z,17.07
2019-04-29T16:30:26.080Z,17.03
2019-04-29T16:32:56.749Z,16.99
2019-04-29T16:35:34.294Z,16.94
2019-04-29T16:37:58.202Z,16.93
2019-04-29T16:40:33.861Z,16.88
2019-04-29T16:43:11.590Z,16.81
2019-04-29T16:45:52.863Z,16.76
2019-04-29T16:48:22.906Z,16.73
2019-04-29T16:50:52.765Z,16.73
2019-04-29T16:53:23.779Z,16.71
2019-04-29T16:55:53.721Z,16.70
2019-04-29T16:58:24.399Z,16.70
2019-04-29T17:00:54.832Z,16.70
2019-04-29T17:03:25.184Z,16.69
2019-04-29T17:05:55.103Z,16.68
2019-04-29T17:08:33.290Z,16.67
2019-04-29T17:11:20.190Z,16.67
2019-04-29T17:13:50.108Z,16.66
2019-04-29T17:16:20.687Z,16.66
2019-04-29T17:18:50.613Z,16.67
2019-04-29T17:21:20.640Z,16.65
2019-04-29T17:23:50.868Z,16.58
2019-04-29T17:26:22.546Z,16.56
2019-04-29T17:29:11.521Z,16.57
2019-04-29T17:31:57.158Z,16.58
2019-04-29T17:34:56.036Z,16.54
2019-04-29T17:37:00.012Z,16.54
2019-04-29T17:39:30.560Z,16.50
2019-04-29T17:42:01.629Z,16.51
2019-04-29T17:44:44.118Z,16.52
2019-04-29T17:47:42.444Z,16.51
2019-04-29T17:50:29.097Z,16.51
2019-04-29T17:52:49.171Z,16.49
2019-04-29T17:55:40.835Z,16.49
2019-04-29T17:58:23.282Z,16.44
2019-04-29T18:01:10.769Z,16.38
2019-04-29T18:04:16.828Z,16.34
2019-04-29T18:06:58.966Z,16.29
2019-04-29T18:09:50.888Z,16.25
2019-04-29T18:12:22.599Z,16.20
2019-04-29T18:14:52.654Z,16.18
2019-04-29T18:17:30.383Z,16.16
2019-04-29T18:20:33.023Z,16.16
2019-04-29T18:23:19.728Z,16.14
2019-04-29T18:26:00.186Z,16.10
2019-04-29T18:28:30.026Z,16.04
2019-04-29T18:30:59.978Z,15.99
2019-04-29T18:33:30.558Z,15.98
2019-04-29T18:36:04.669Z,15.97
2019-04-29T18:38:35.071Z,15.93
2019-04-29T18:41:05.025Z,15.88
2019-04-29T18:43:35.377Z,15.86
2019-04-29T18:46:12.263Z,15.82
2019-04-29T18:48:37.096Z,15.78
2019-04-29T18:51:06.963Z,15.76
2019-04-29T18:53:36.918Z,15.76
2019-04-29T18:56:06.852Z,15.78
2019-04-29T18:58:37.402Z,15.75
2019-04-29T19:01:07.340Z,15.74
2019-04-29T19:04:04.649Z,15.74
2019-04-29T19:06:33.223Z,15.73
2019-04-29T19:09:16.849Z,15.70
2019-04-29T19:11:36.770Z,15.68
2019-04-29T19:14:07.771Z,15.69
2019-04-29T19:16:39.391Z,15.70
2019-04-29T19:19:09.512Z,15.69
2019-04-29T19:21:39.412Z,15.66
2019-04-29T19:24:09.387Z,15.65
2019-04-29T19:26:40.846Z,15.64
2019-04-29T19:29:10.790Z,15.65
2019-04-29T19:31:46.675Z,15.63
2019-04-29T19:34:14.609Z,15.64
2019-04-29T19:36:45.144Z,15.67
2019-04-29T19:39:16.875Z,15.62
2019-04-29T19:41:50.338Z,15.58
2019-04-29T19:44:19.637Z,15.53
2019-04-29T19:46:51.256Z,15.52
2019-04-29T19:49:21.041Z,15.53
2019-04-29T19:51:50.930Z,15.51
2019-04-29T19:54:27.277Z,15.46
2019-04-29T19:56:55.527Z,15.45
2019-04-29T19:59:26.117Z,15.40
2019-04-29T20:02:05.017Z,15.35
2019-04-29T20:04:52.444Z,15.33
2019-04-29T20:07:23.257Z,15.32
2019-04-29T20:09:59.895Z,15.28
2019-04-29T20:12:26.304Z,15.26
2019-04-29T20:14:59.659Z,15.23
2019-04-29T20:17:49.274Z,15.21
2019-04-29T20:20:25.286Z,15.17
2019-04-29T20:22:55.863Z,15.14
2019-04-29T20:25:30.264Z,15.13
2019-04-29T20:28:05.693Z,15.13
2019-04-29T20:30:30.023Z,15.10
2019-04-29T20:33:01.180Z,15.07
2019-04-29T20:35:32.197Z,15.07
2019-04-29T20:38:02.305Z,15.07
2019-04-29T20:40:38.056Z,15.06
2019-04-29T20:43:08.578Z,15.03
2019-04-29T20:45:38.904Z,15.03
2019-04-29T20:48:11.135Z,14.94
2019-04-29T20:50:41.090Z,14.94
2019-04-29T20:53:20.001Z,14.93
2019-04-29T20:55:50.189Z,14.91
2019-04-29T20:58:23.590Z,14.90
2019-04-29T21:00:58.195Z,14.88
2019-04-29T21:03:29.806Z,14.87
2019-04-29T21:06:02.337Z,14.87
2019-04-29T21:08:28.236Z,14.85
2019-04-29T21:11:00.361Z,14.86
2019-04-29T21:13:55.855Z,14.86
2019-04-29T21:16:30.882Z,14.84
2019-04-29T21:19:09.057Z,14.83
2019-04-29T21:21:42.000Z,14.82
2019-04-29T21:24:13.906Z,14.77
2019-04-29T21:26:44.554Z,14.75
2019-04-29T21:29:19.242Z,14.72
2019-04-29T21:31:50.714Z,14.72
2019-04-29T21:34:19.738Z,14.70
2019-04-29T21:37:05.936Z,14.68
2019-04-29T21:39:44.655Z,14.65
2019-04-29T21:42:29.690Z,14.66
2019-04-29T21:44:58.617Z,14.63
2019-04-29T21:47:41.672Z,14.61
2019-04-29T21:50:01.145Z,14.60
2019-04-29T21:52:31.153Z,14.60
2019-04-29T21:55:01.038Z,14.62
2019-04-29T21:57:30.899Z,14.64
2019-04-29T22:00:01.043Z,14.63
2019-04-29T22:02:33.255Z,14.63
2019-04-29T22:05:05.182Z,14.64
2019-04-29T22:07:35.773Z,14.64
2019-04-29T22:10:09.281Z,14.63
2019-04-29T22:12:39.227Z,14.63
2019-04-29T22:15:09.163Z,14.61
2019-04-29T22:17:39.356Z,14.63
2019-04-29T22:20:11.025Z,14.63
2019-04-29T22:22:41.411Z,14.64
2019-04-29T22:25:11.666Z,14.62
2019-04-29T22:27:41.612Z,14.62
2019-04-29T22:30:15.420Z,14.62
2019-04-29T22:32:46.937Z,14.60
2019-04-29T22:35:16.671Z,14.60
2019-04-29T22:37:46.982Z,14.60
2019-04-29T22:40:17.489Z,14.59
2019-04-29T22:43:04.693Z,14.57
2019-04-29T22:45:33.917Z,14.58
2019-04-29T22:48:14.713Z,14.57
2019-04-29T22:50:38.115Z,14.56
2019-04-29T22:53:08.741Z,14.53
2019-04-29T22:55:38.909Z,14.49
2019-04-29T22:58:10.083Z,14.48
2019-04-29T23:00:40.305Z,14.45
2019-04-29T23:03:10.536Z,14.46
2019-04-29T23:05:40.385Z,14.49
2019-04-29T23:08:10.341Z,14.49
2019-04-29T23:10:40.267Z,14.52
2019-04-29T23:13:10.134Z,14.51
2019-04-29T23:15:40.100Z,14.52
2019-04-29T23:18:09.973Z,14.52
2019-04-29T23:21:08.112Z,14.46
2019-04-29T23:23:42.988Z,14.43
2019-04-29T23:26:12.857Z,14.39
2019-04-29T23:28:42.632Z,14.35
2019-04-29T23:31:12.974Z,14.32
2019-04-29T23:33:42.855Z,14.30
2019-04-29T23:36:14.192Z,14.29
2019-04-29T23:38:44.733Z,14.26
2019-04-29T23:41:15.377Z,14.25
2019-04-29T23:43:45.694Z,14.24
2019-04-29T23:46:16.135Z,14.21
2019-04-29T23:48:46.821Z,14.21
2019-04-29T23:51:16.792Z,14.18
2019-04-29T23:53:46.729Z,14.18
2019-04-29T23:56:18.346Z,14.17
2019-04-29T23:59:05.536Z,14.15
